Time;durP1;ratioP1;P1;durP2;ratioP2;P2;SDS_P1;SDS_P2;PMS_P1;PMS_P2;Temp;Humidity;BMP_temperature;BMP_pressure;BME280_temperature;BME280_humidity;BME280_pressure;Samples;Min_cycle;Max_cycle;Signal;HPM_P1;HPM_P2
2024/01/23 00:01:00;;;;;;;59.03;39.33;;;25.70;2201.60;;;;;;4806357;24;20123;-74
2024/01/23 00:03:25;;;;;;;61.10;35.42;;;25.80;2201.60;;;;;;4800182;29;20030;-76
2024/01/23 00:05:51;;;;;;;74.95;46.22;;;25.90;2201.60;;;;;;4889251;24;20051;-75
2024/01/23 00:08:17;;;;;;;100.10;59.03;;;26.00;2201.60;;;;;;4800763;29;20026;-76
2024/01/23 00:10:43;;;;;;;119.03;71.60;;;26.20;2201.60;;;;;;4808516;24;20086;-75
2024/01/23 00:13:09;;;;;;;127.20;76.13;;;25.90;2201.60;;;;;;4772301;24;20060;-74
2024/01/23 00:15:36;;;;;;;121.72;75.68;;;25.90;2201.60;;;;;;4779916;30;20039;-74
2024/01/23 00:18:02;;;;;;;52.95;31.75;;;25.80;2201.60;;;;;;4797036;24;20057;-74
2024/01/23 00:20:28;;;;;;;77.20;51.17;;;25.60;2201.60;;;;;;4804414;29;20070;-74
2024/01/23 00:22:55;;;;;;;111.90;68.28;;;25.60;2201.60;;;;;;4809660;29;20027;-75
2024/01/23 00:25:21;;;;;;;40.55;23.75;;;0.90;2201.60;;;;;;4813438;29;20047;-74
2024/01/23 00:27:46;;;;;;;97.50;53.17;;;0.80;2201.60;;;;;;4810166;29;20038;-74
2024/01/23 00:30:13;;;;;;;102.10;56.45;;;0.90;2201.60;;;;;;4793200;29;20077;-74
2024/01/23 00:32:39;;;;;;;79.40;48.65;;;25.70;2201.60;;;;;;4794260;29;20054;-74
2024/01/23 00:35:06;;;;;;;39.97;23.23;;;25.70;2201.60;;;;;;4811055;29;20027;-75
2024/01/23 00:37:31;;;;;;;39.53;23.02;;;25.70;2201.60;;;;;;4810132;29;20023;-74
2024/01/23 00:39:59;;;;;;;20.25;13.02;;;25.80;2201.60;;;;;;4811188;24;20499;-75
2024/01/23 00:42:26;;;;;;;34.63;21.15;;;25.80;2201.60;;;;;;4792378;29;20379;-73
2024/01/23 00:44:53;;;;;;;58.10;31.85;;;25.80;2201.60;;;;;;4775606;30;20592;-75
2024/01/23 00:47:19;;;;;;;115.20;68.63;;;25.90;2201.60;;;;;;4792259;29;20027;-74
2024/01/23 00:49:45;;;;;;;51.03;32.25;;;0.90;2201.60;;;;;;4803154;29;20034;-75
2024/01/23 00:52:11;;;;;;;34.20;21.50;;;25.70;2201.60;;;;;;4802448;30;20043;-72
2024/01/23 00:54:37;;;;;;;194.13;119.03;;;25.90;2201.60;;;;;;4815458;24;20063;-74
2024/01/23 00:57:06;;;;;;;56.00;35.60;;;25.90;2201.60;;;;;;4797271;30;20621;-75
2024/01/23 00:59:32;;;;;;;22.70;13.43;;;26.00;2201.60;;;;;;4802788;29;20066;-76
2024/01/23 01:01:58;;;;;;;62.10;37.83;;;26.20;2201.60;;;;;;4804353;29;20038;-74
2024/01/23 01:04:24;;;;;;;34.10;20.23;;;26.20;2201.60;;;;;;4806660;24;20119;-77
2024/01/23 01:06:53;;;;;;;27.33;15.70;;;26.10;2201.60;;;;;;4822284;29;20045;-79
2024/01/23 01:09:19;;;;;;;38.28;22.33;;;26.20;2201.60;;;;;;4821477;29;20045;-75
2024/01/23 01:11:45;;;;;;;28.17;18.73;;;26.20;2201.60;;;;;;4805226;29;20034;-75
2024/01/23 01:14:10;;;;;;;40.60;26.85;;;26.30;2201.60;;;;;;4817702;24;20067;-73
2024/01/23 01:16:36;;;;;;;35.95;24.27;;;26.20;2201.60;;;;;;4787373;24;20073;-73
2024/01/23 01:19:03;;;;;;;34.17;25.10;;;26.10;2201.60;;;;;;4782073;30;20110;-76
2024/01/23 01:21:29;;;;;;;31.35;20.02;;;26.30;2201.60;;;;;;4805157;29;20091;-75
2024/01/23 01:23:55;;;;;;;14.45;8.27;;;26.00;2201.60;;;;;;4804049;24;20095;-72
2024/01/23 01:26:21;;;;;;;18.08;11.70;;;26.10;2201.60;;;;;;4803941;29;20110;-77
2024/01/23 01:28:46;;;;;;;18.35;12.48;;;26.10;2201.60;;;;;;4822527;29;20035;-74
2024/01/23 01:31:12;;;;;;;35.90;21.38;;;26.20;2201.60;;;;;;4822820;29;20046;-74
2024/01/23 01:33:38;;;;;;;46.35;29.40;;;26.10;2201.60;;;;;;4822325;29;20033;-75
2024/01/23 01:36:04;;;;;;;41.30;26.27;;;25.90;2201.60;;;;;;4805975;29;20064;-73
2024/01/23 01:38:30;;;;;;;38.55;23.58;;;25.90;2201.60;;;;;;4808089;24;20043;-76
2024/01/23 01:40:58;;;;;;;43.38;22.83;;;26.00;2201.60;;;;;;4771254;30;20028;-77
2024/01/23 01:43:26;;;;;;;29.60;17.55;;;26.00;2201.60;;;;;;4785657;30;20032;-74
2024/01/23 01:46:17;;;;;;;74.45;44.38;;;26.00;2201.60;;;;;;4786028;30;20091;-73
2024/01/23 01:48:43;;;;;;;204.98;110.97;;;26.00;2201.60;;;;;;4804141;24;20063;-74
2024/01/23 01:51:11;;;;;;;38.22;21.70;;;25.70;2201.60;;;;;;4804169;24;20450;-74
2024/01/23 01:53:38;;;;;;;34.13;21.65;;;26.00;2201.60;;;;;;4785410;30;20042;-75
2024/01/23 01:56:05;;;;;;;13.80;8.90;;;25.80;2201.60;;;;;;4786180;30;20054;-74
2024/01/23 01:58:32;;;;;;;32.60;19.48;;;25.90;2201.60;;;;;;4786065;30;20038;-75
2024/01/23 02:01:01;;;;;;;82.43;46.10;;;25.70;2201.60;;;;;;4781538;24;20114;-79
2024/01/23 02:03:27;;;;;;;147.73;79.78;;;0.90;2201.60;;;;;;4802489;29;20069;-76
2024/01/23 02:06:09;;;;;;;89.15;47.28;;;0.70;2201.60;;;;;;4802519;29;20039;-76
2024/01/23 02:08:44;;;;;;;80.03;45.78;;;0.50;2201.60;;;;;;4800844;30;20031;-76
2024/01/23 02:11:10;;;;;;;41.63;24.85;;;0.40;2201.60;;;;;;4788476;29;20051;-74
2024/01/23 02:13:35;;;;;;;39.88;21.42;;;0.20;2201.60;;;;;;4790227;30;20027;-73
2024/01/23 02:16:02;;;;;;;35.95;21.58;;;0.20;2201.60;;;;;;4777143;30;20107;-72
2024/01/23 02:18:28;;;;;;;51.67;26.88;;;0.50;2201.60;;;;;;4780821;30;20107;-72
2024/01/23 02:20:54;;;;;;;57.53;30.85;;;0.80;2201.60;;;;;;4787011;30;20390;-72
2024/01/23 02:23:20;;;;;;;91.88;48.25;;;25.60;2201.60;;;;;;4787515;30;20043;-72
2024/01/23 02:25:46;;;;;;;99.55;55.38;;;25.60;2201.60;;;;;;4786169;30;20028;-72
2024/01/23 02:28:15;;;;;;;55.28;32.85;;;25.70;2201.60;;;;;;4783452;30;20081;-73
2024/01/23 02:30:41;;;;;;;68.00;39.75;;;25.70;2201.60;;;;;;4782311;30;20080;-74
2024/01/23 02:33:07;;;;;;;86.28;47.95;;;25.70;2201.60;;;;;;4784347;30;20050;-73
2024/01/23 02:35:33;;;;;;;21.50;12.50;;;25.70;2201.60;;;;;;4784073;30;20020;-73
2024/01/23 02:37:59;;;;;;;21.55;12.30;;;0.80;2201.60;;;;;;4779257;30;20563;-73
2024/01/23 02:40:26;;;;;;;52.60;26.58;;;0.80;2201.60;;;;;;4772877;29;20024;-73
2024/01/23 02:42:52;;;;;;;32.50;17.98;;;0.90;2201.60;;;;;;4789195;30;20084;-74
2024/01/23 02:45:17;;;;;;;39.40;24.27;;;0.90;2201.60;;;;;;4787835;30;20110;-73
2024/01/23 02:47:43;;;;;;;31.58;16.83;;;0.90;2201.60;;;;;;4786384;30;20490;-73
2024/01/23 02:50:10;;;;;;;17.60;12.60;;;0.80;2201.60;;;;;;4788556;30;20517;-73
2024/01/23 02:52:36;;;;;;;27.70;14.75;;;0.80;2201.60;;;;;;4786720;30;20043;-73
2024/01/23 02:55:02;;;;;;;23.27;13.10;;;0.80;2201.60;;;;;;4772886;30;20130;-73
2024/01/23 02:57:27;;;;;;;19.33;9.55;;;0.90;2201.60;;;;;;4787615;29;20031;-73
2024/01/23 02:59:54;;;;;;;11.48;7.30;;;25.70;2201.60;;;;;;4788150;29;20360;-78
2024/01/23 03:02:20;;;;;;;9.35;4.47;;;25.70;2201.60;;;;;;4783680;29;20401;-73
2024/01/23 03:04:46;;;;;;;11.60;5.45;;;25.90;2201.60;;;;;;4787695;29;20007;-73
2024/01/23 03:07:12;;;;;;;9.32;4.95;;;25.90;2201.60;;;;;;4787675;29;20039;-73
2024/01/23 03:09:38;;;;;;;10.80;5.50;;;25.70;2201.60;;;;;;4789825;29;20049;-74
2024/01/23 03:12:18;;;;;;;9.30;5.38;;;0.90;2201.60;;;;;;4788470;29;20058;-73
2024/01/23 03:14:44;;;;;;;7.55;4.22;;;0.70;2201.60;;;;;;4786489;29;20549;-73
2024/01/23 03:17:14;;;;;;;8.57;4.70;;;0.80;2201.60;;;;;;4790389;29;20035;-73
2024/01/23 03:19:41;;;;;;;6.30;3.53;;;0.80;2201.60;;;;;;4796985;29;20027;-71
2024/01/23 03:24:40;;;;;;;7.60;4.20;;;0.90;2201.60;;;;;;4808418;24;20104;-74
2024/01/23 03:27:06;;;;;;;10.02;5.90;;;0.90;2201.60;;;;;;4803671;29;20114;-75
2024/01/23 03:29:40;;;;;;;11.32;5.75;;;0.90;2201.60;;;;;;4798330;29;20024;-76
2024/01/23 03:32:06;;;;;;;10.45;5.85;;;0.80;2201.60;;;;;;4805775;29;20043;-75
2024/01/23 03:34:39;;;;;;;21.95;12.77;;;25.60;2201.60;;;;;;4802407;29;20110;-75
2024/01/23 03:37:05;;;;;;;14.80;8.00;;;25.80;2201.60;;;;;;4800568;24;20064;-76
2024/01/23 03:39:32;;;;;;;9.63;5.18;;;25.80;2201.60;;;;;;4785359;30;20298;-76
2024/01/23 03:41:58;;;;;;;7.20;3.85;;;25.90;2201.60;;;;;;4788685;24;20059;-74
2024/01/23 03:44:24;;;;;;;6.35;3.53;;;26.10;2201.60;;;;;;4818969;24;20059;-76
2024/01/23 03:46:51;;;;;;;6.57;3.30;;;26.30;2201.60;;;;;;4789847;29;20021;-74
2024/01/23 03:49:17;;;;;;;5.57;3.58;;;26.50;2201.60;;;;;;4789422;30;20035;-75
2024/01/23 03:51:44;;;;;;;6.40;3.05;;;51.20;2227.20;;;;;;4805562;29;20035;-74
2024/01/23 03:54:10;;;;;;;5.18;2.65;;;51.30;2227.20;;;;;;4808809;29;20050;-74
2024/01/23 03:56:36;;;;;;;7.28;3.92;;;51.50;2227.20;;;;;;4859273;24;20073;-76
2024/01/23 03:59:01;;;;;;;6.47;3.92;;;51.70;2227.20;;;;;;4809619;29;20057;-75
2024/01/23 04:01:27;;;;;;;10.48;4.45;;;51.80;2227.20;;;;;;4808613;29;20035;-75
2024/01/23 04:03:53;;;;;;;19.50;10.45;;;52.10;2227.20;;;;;;4806801;30;20027;-74
2024/01/23 04:06:19;;;;;;;33.95;18.15;;;77.00;2227.20;;;;;;4790132;29;20483;-74
2024/01/23 04:08:45;;;;;;;14.88;6.40;;;51.90;2227.20;;;;;;4792157;29;20034;-73
2024/01/23 04:11:11;;;;;;;35.05;16.85;;;51.90;2227.20;;;;;;4790552;29;20039;-74
2024/01/23 04:13:37;;;;;;;20.70;9.27;;;51.90;2227.20;;;;;;4790410;30;20043;-74
2024/01/23 04:16:05;;;;;;;11.65;6.38;;;51.90;2227.20;;;;;;4780955;29;20054;-73
2024/01/23 04:18:31;;;;;;;11.00;6.47;;;51.80;2227.20;;;;;;4791895;29;20031;-78
2024/01/23 04:20:57;;;;;;;52.03;25.50;;;51.80;2227.20;;;;;;4790232;29;20035;-74
2024/01/23 04:23:22;;;;;;;49.03;25.65;;;51.80;2227.20;;;;;;4789577;29;20031;-73
2024/01/23 04:25:48;;;;;;;34.05;17.15;;;51.80;2227.20;;;;;;4789907;29;20039;-73
2024/01/23 04:28:14;;;;;;;30.75;14.10;;;51.80;2227.20;;;;;;4788995;29;20064;-73
2024/01/23 04:30:40;;;;;;;29.05;14.68;;;51.80;2227.20;;;;;;4789914;29;20117;-74
2024/01/23 04:33:06;;;;;;;13.30;9.10;;;51.80;2227.20;;;;;;4789529;29;20046;-73
2024/01/23 04:35:37;;;;;;;12.40;6.45;;;51.80;2227.20;;;;;;4803303;29;20027;-75
2024/01/23 04:38:03;;;;;;;10.80;6.55;;;51.70;2227.20;;;;;;4812742;24;20100;-73
2024/01/23 04:40:29;;;;;;;12.30;5.93;;;51.60;2227.20;;;;;;4807565;29;20023;-74
2024/01/23 04:42:55;;;;;;;10.70;6.45;;;51.60;2227.20;;;;;;4815770;24;20058;-75
2024/01/23 04:45:20;;;;;;;10.23;7.28;;;51.60;2227.20;;;;;;4818350;24;20071;-73
2024/01/23 04:47:46;;;;;;;14.45;7.72;;;51.50;2227.20;;;;;;4809068;30;20046;-77
2024/01/23 04:50:12;;;;;;;16.92;8.15;;;51.50;2227.20;;;;;;4804995;29;20035;-74
2024/01/23 04:52:38;;;;;;;14.65;7.03;;;51.60;2227.20;;;;;;4798161;29;20036;-77
2024/01/23 04:57:34;;;;;;;11.15;6.68;;;51.50;2227.20;;;;;;4777297;30;20574;-75
2024/01/23 05:02:26;;;;;;;46.60;24.05;;;51.60;2227.20;;;;;;4816502;24;20059;-75
2024/01/23 05:04:52;;;;;;;47.00;23.85;;;51.50;2227.20;;;;;;4806609;24;20066;-74
2024/01/23 05:07:19;;;;;;;33.17;19.42;;;51.60;2227.20;;;;;;4790714;29;20106;-73
2024/01/23 05:09:45;;;;;;;28.83;13.77;;;51.60;2227.20;;;;;;4773736;30;20395;-73
2024/01/23 05:12:11;;;;;;;33.35;18.88;;;51.60;2227.20;;;;;;4789368;29;20118;-74
2024/01/23 05:14:37;;;;;;;20.00;11.80;;;51.70;2227.20;;;;;;4788719;30;20023;-72
2024/01/23 05:17:02;;;;;;;13.65;7.72;;;51.70;2227.20;;;;;;4789711;30;20035;-73
2024/01/23 05:19:30;;;;;;;24.92;12.98;;;51.50;2227.20;;;;;;4790131;30;20019;-74
2024/01/23 05:21:56;;;;;;;18.83;9.13;;;51.90;2227.20;;;;;;4791888;30;20112;-74
2024/01/23 05:24:21;;;;;;;28.70;14.82;;;51.80;2227.20;;;;;;4780376;30;20031;-73
2024/01/23 05:26:47;;;;;;;19.58;10.93;;;51.80;2227.20;;;;;;4791669;30;20046;-73
2024/01/23 05:29:13;;;;;;;29.88;18.70;;;52.00;2227.20;;;;;;4793039;30;20102;-71
2024/01/23 05:31:39;;;;;;;35.20;17.73;;;52.10;2227.20;;;;;;4789695;30;20035;-72
2024/01/23 05:34:05;;;;;;;29.63;16.08;;;52.10;2227.20;;;;;;4788829;30;20043;-73
2024/01/23 05:36:31;;;;;;;42.10;24.05;;;51.90;2227.20;;;;;;4797151;30;20040;-73
2024/01/23 05:38:56;;;;;;;33.55;17.65;;;52.10;2227.20;;;;;;4789168;30;20031;-73
2024/01/23 05:41:22;;;;;;;69.00;32.10;;;52.00;2227.20;;;;;;4810706;24;20079;-75
2024/01/23 05:43:50;;;;;;;23.80;12.43;;;52.10;2227.20;;;;;;4819528;24;20063;-72
2024/01/23 05:46:15;;;;;;;20.33;7.50;;;52.00;2227.20;;;;;;4813864;24;20023;-72
2024/01/23 05:48:41;;;;;;;14.05;8.02;;;76.80;2227.20;;;;;;4807289;29;20114;-73
2024/01/23 05:51:07;;;;;;;11.77;7.28;;;77.00;2227.20;;;;;;4819207;24;20066;-72
2024/01/23 05:53:33;;;;;;;13.40;7.80;;;77.30;2227.20;;;;;;4808303;29;20114;-76
2024/01/23 05:55:58;;;;;;;10.38;6.60;;;77.50;2227.20;;;;;;4803920;30;20023;-73
2024/01/23 05:58:24;;;;;;;10.48;7.65;;;77.70;2227.20;;;;;;4794584;29;20399;-73
2024/01/23 06:00:50;;;;;;;17.33;9.05;;;102.50;2227.20;;;;;;4806524;29;20522;-72
2024/01/23 06:03:16;;;;;;;14.18;8.20;;;102.70;2227.20;;;;;;4885670;24;20086;-77
2024/01/23 06:05:42;;;;;;;15.38;8.88;;;102.70;2227.20;;;;;;4784984;30;20483;-76
2024/01/23 06:08:07;;;;;;;13.30;8.32;;;102.80;2227.20;;;;;;4793615;30;20472;-74
2024/01/23 06:10:33;;;;;;;16.58;10.57;;;102.90;2227.20;;;;;;4781779;30;20116;-73
2024/01/23 06:12:59;;;;;;;167.52;97.90;;;103.00;2227.20;;;;;;4785572;29;20046;-74
2024/01/23 06:15:25;;;;;;;36.72;20.67;;;103.00;2227.20;;;;;;4786243;29;20092;-74
2024/01/23 06:17:51;;;;;;;22.92;12.00;;;103.00;2227.20;;;;;;4782297;30;20499;-73
2024/01/23 06:20:17;;;;;;;24.88;16.25;;;103.00;2227.20;;;;;;4786285;30;20490;-74
2024/01/23 06:22:42;;;;;;;20.20;12.48;;;103.00;2227.20;;;;;;4784908;30;20148;-73
2024/01/23 06:25:14;;;;;;;18.08;12.02;;;103.10;2227.20;;;;;;4776390;30;20063;-74
2024/01/23 06:27:40;;;;;;;18.40;11.60;;;103.20;2227.20;;;;;;4776084;30;20035;-73
2024/01/23 06:30:11;;;;;;;21.25;12.07;;;103.30;2227.20;;;;;;4785458;30;20491;-73
2024/01/23 06:32:39;;;;;;;19.52;12.20;;;103.10;2227.20;;;;;;4780369;30;20498;-73
2024/01/23 06:35:06;;;;;;;19.77;12.82;;;103.20;2227.20;;;;;;4777813;30;20534;-74
2024/01/23 06:37:32;;;;;;;21.23;14.63;;;103.20;2227.20;;;;;;4786204;30;20027;-74
2024/01/23 06:39:58;;;;;;;51.38;25.25;;;103.20;2227.20;;;;;;4783608;30;20452;-73
2024/01/23 06:42:24;;;;;;;219.43;129.02;;;103.20;2227.20;;;;;;4784926;30;20038;-73
2024/01/23 06:44:50;;;;;;;172.88;109.03;;;103.10;2227.20;;;;;;4781086;30;20024;-72
2024/01/23 06:47:17;;;;;;;225.65;138.35;;;103.00;2227.20;;;;;;4788480;30;20039;-74
2024/01/23 06:49:43;;;;;;;219.10;141.10;;;102.90;2227.20;;;;;;4788696;30;20035;-75
2024/01/23 06:52:09;;;;;;;178.52;112.32;;;102.70;2227.20;;;;;;4792462;29;20042;-74
2024/01/23 06:54:35;;;;;;;262.42;157.50;;;102.50;2227.20;;;;;;4786412;30;20043;-75
2024/01/23 06:57:01;;;;;;;355.27;214.80;;;77.70;2227.20;;;;;;4787515;30;20039;-74
2024/01/23 06:59:27;;;;;;;81.38;47.50;;;102.40;2227.20;;;;;;4783685;29;20019;-74
2024/01/23 07:01:53;;;;;;;95.82;58.40;;;102.50;2227.20;;;;;;4789548;29;20031;-74
2024/01/23 07:04:19;;;;;;;403.63;247.48;;;102.70;2227.20;;;;;;4784846;29;20134;-75
2024/01/23 07:06:45;;;;;;;360.85;241.90;;;77.30;2227.20;;;;;;4803385;30;20047;-74
2024/01/23 07:09:11;;;;;;;340.73;217.55;;;52.10;2227.20;;;;;;4801495;24;20122;-72
2024/01/23 07:11:41;;;;;;;312.27;204.45;;;52.10;2227.20;;;;;;4803130;29;20099;-76
2024/01/23 07:16:36;;;;;;;244.13;156.48;;;77.00;2227.20;;;;;;4801238;30;20092;-74
2024/01/23 07:19:02;;;;;;;415.77;257.90;;;77.30;2227.20;;;;;;4793610;30;20032;-74
2024/01/23 07:21:28;;;;;;;226.75;146.30;;;77.40;2227.20;;;;;;4768028;30;20481;-74
2024/01/23 07:23:54;;;;;;;171.57;103.20;;;77.30;2227.20;;;;;;4768040;30;20036;-73
2024/01/23 07:26:19;;;;;;;133.75;83.90;;;77.50;2227.20;;;;;;4788395;29;20107;-73
2024/01/23 07:28:45;;;;;;;139.75;82.93;;;77.70;2227.20;;;;;;4805517;29;20062;-73
2024/01/23 07:31:12;;;;;;;134.48;85.72;;;102.50;2227.20;;;;;;4804229;29;20383;-72
2024/01/23 07:33:38;;;;;;;163.48;96.38;;;102.70;2227.20;;;;;;4802700;29;20471;-72
2024/01/23 07:36:05;;;;;;;127.88;79.13;;;102.70;2227.20;;;;;;4782596;30;20035;-75
2024/01/23 07:38:30;;;;;;;284.70;163.07;;;102.70;2227.20;;;;;;4799755;29;20042;-73
2024/01/23 07:40:56;;;;;;;200.68;123.95;;;102.80;2227.20;;;;;;4802775;29;20023;-75
2024/01/23 07:43:25;;;;;;;61.67;38.03;;;102.90;2227.20;;;;;;4791051;29;20031;-77
2024/01/23 07:45:52;;;;;;;25.42;15.90;;;102.70;2227.20;;;;;;4781868;29;20026;-72
2024/01/23 07:48:17;;;;;;;74.80;66.90;;;102.70;2227.20;;;;;;4802060;29;20088;-72
2024/01/23 07:50:43;;;;;;;26.20;21.45;;;102.80;2227.20;;;;;;4802736;29;20057;-74
2024/01/23 07:53:09;;;;;;;43.78;35.65;;;103.00;2227.20;;;;;;4801456;29;20099;-76
2024/01/23 07:55:35;;;;;;;46.92;28.77;;;103.20;2227.20;;;;;;4774756;30;20059;-75
2024/01/23 07:58:00;;;;;;;26.17;16.85;;;103.30;2227.20;;;;;;4775009;30;20399;-76
2024/01/23 08:00:26;;;;;;;28.88;18.38;;;128.00;2252.80;;;;;;4786354;29;20029;-76
2024/01/23 08:02:52;;;;;;;35.97;22.27;;;128.10;2252.80;;;;;;4802281;29;20375;-75
2024/01/23 08:05:18;;;;;;;24.35;16.17;;;128.20;2252.80;;;;;;4782226;30;20368;-77
2024/01/23 08:07:44;;;;;;;149.43;78.60;;;128.30;2252.80;;;;;;4798506;29;20026;-77
2024/01/23 08:10:10;;;;;;;59.95;35.78;;;128.40;2252.80;;;;;;4766874;30;20044;-77
2024/01/23 08:12:36;;;;;;;26.55;17.67;;;128.50;2252.80;;;;;;4794506;29;20096;-76
2024/01/23 08:15:02;;;;;;;36.70;23.80;;;128.60;2252.80;;;;;;4797147;29;20047;-76
2024/01/23 08:17:28;;;;;;;23.65;15.82;;;128.70;2252.80;;;;;;4799175;29;20039;-76
2024/01/23 08:19:54;;;;;;;37.45;24.58;;;128.70;2252.80;;;;;;4796916;29;20632;-75
2024/01/23 08:22:20;;;;;;;33.00;20.38;;;128.80;2252.80;;;;;;4798594;29;20038;-77
2024/01/23 08:24:45;;;;;;;31.10;18.60;;;128.90;2252.80;;;;;;4800135;29;20027;-77
2024/01/23 08:27:11;;;;;;;22.70;15.90;;;128.90;2252.80;;;;;;4790603;29;20517;-76
2024/01/23 08:29:37;;;;;;;139.38;71.38;;;153.70;2252.80;;;;;;4796737;29;20035;-77
2024/01/23 08:32:03;;;;;;;58.95;33.47;;;153.70;2252.80;;;;;;4781923;30;20071;-76
2024/01/23 08:34:30;;;;;;;44.13;29.95;;;153.80;2252.80;;;;;;4776254;30;20035;-76
2024/01/23 08:36:56;;;;;;;57.05;38.80;;;153.70;2252.80;;;;;;4781048;30;20040;-78
2024/01/23 08:39:22;;;;;;;37.63;26.48;;;153.80;2252.80;;;;;;4800151;29;20042;-78
2024/01/23 08:41:48;;;;;;;60.47;32.92;;;128.90;2252.80;;;;;;4791534;29;20441;-77
2024/01/23 08:44:14;;;;;;;60.22;34.30;;;128.60;2252.80;;;;;;4796589;29;20038;-77
2024/01/23 08:46:40;;;;;;;65.18;37.63;;;128.80;2252.80;;;;;;4809053;29;20091;-78
2024/01/23 08:49:06;;;;;;;55.72;33.45;;;128.80;2252.80;;;;;;4805658;29;20494;-78
2024/01/23 08:51:32;;;;;;;41.65;29.98;;;153.70;2252.80;;;;;;4799538;29;20045;-79
2024/01/23 08:53:58;;;;;;;37.53;24.02;;;153.80;2252.80;;;;;;4809706;29;20098;-78
2024/01/23 08:56:25;;;;;;;39.30;25.33;;;128.80;2252.80;;;;;;4785650;30;20493;-78
2024/01/23 08:58:51;;;;;;;76.68;45.15;;;128.90;2252.80;;;;;;4781794;29;20499;-77
2024/01/23 09:01:17;;;;;;;358.42;237.55;;;153.70;2252.80;;;;;;4786101;30;20046;-78
2024/01/23 09:03:46;;;;;;;93.03;68.80;;;153.70;2252.80;;;;;;4771078;30;20137;-77
2024/01/23 09:06:12;;;;;;;88.55;54.63;;;153.60;2252.80;;;;;;4769007;30;20028;-77
2024/01/23 09:08:42;;;;;;;678.83;459.65;;;153.70;2252.80;;;;;;4769616;29;20084;-77
2024/01/23 09:11:08;;;;;;;88.32;53.30;;;153.70;2252.80;;;;;;4785477;30;20055;-77
2024/01/23 09:13:34;;;;;;;33.45;19.60;;;128.90;2252.80;;;;;;4802254;29;20073;-77
2024/01/23 09:16:00;;;;;;;40.03;26.35;;;128.90;2252.80;;;;;;4788093;29;20066;-77
2024/01/23 09:18:27;;;;;;;817.67;538.47;;;154.00;2252.80;;;;;;4798472;29;20031;-77
2024/01/23 09:20:53;;;;;;;504.35;326.70;;;153.70;2252.80;;;;;;4804373;29;20026;-77
2024/01/23 09:23:19;;;;;;;67.30;41.92;;;153.70;2252.80;;;;;;4797660;29;20038;-76
2024/01/23 09:25:45;;;;;;;49.28;32.83;;;153.70;2252.80;;;;;;4775017;30;20040;-77
2024/01/23 09:28:11;;;;;;;60.33;42.20;;;153.70;2252.80;;;;;;4781926;30;20043;-78
2024/01/23 09:30:37;;;;;;;33.17;19.90;;;153.70;2252.80;;;;;;4785961;29;20043;-76
2024/01/23 09:33:03;;;;;;;33.75;19.50;;;153.80;2252.80;;;;;;4775631;30;20104;-78
2024/01/23 09:35:30;;;;;;;30.33;19.23;;;153.80;2252.80;;;;;;4777545;30;20042;-77
2024/01/23 09:37:56;;;;;;;28.70;18.33;;;153.80;2252.80;;;;;;4785513;29;20459;-78
2024/01/23 09:40:22;;;;;;;22.58;15.57;;;153.90;2252.80;;;;;;4805494;29;20065;-77
2024/01/23 09:42:48;;;;;;;214.77;136.88;;;153.60;2252.80;;;;;;4787175;29;20035;-77
2024/01/23 09:45:17;;;;;;;409.98;251.55;;;128.50;2252.80;;;;;;4805537;29;20721;-77
2024/01/23 09:47:47;;;;;;;215.40;122.95;;;128.40;2252.80;;;;;;4773359;30;20028;-78
2024/01/23 09:50:14;;;;;;;518.08;349.92;;;128.50;2252.80;;;;;;4770233;30;20459;-78
2024/01/23 09:52:44;;;;;;;292.40;180.88;;;128.20;2252.80;;;;;;4787137;29;20111;-78
2024/01/23 09:55:12;;;;;;;408.88;254.90;;;103.10;2227.20;;;;;;4788108;30;20035;-77
2024/01/23 09:57:43;;;;;;;306.80;198.45;;;102.90;2227.20;;;;;;4788173;29;20038;-78
2024/01/23 10:00:13;;;;;;;186.52;128.68;;;102.90;2227.20;;;;;;4807245;29;20031;-76
2024/01/23 10:02:42;;;;;;;171.32;112.63;;;102.80;2227.20;;;;;;4807830;29;20023;-78
2024/01/23 10:05:15;;;;;;;159.25;111.93;;;102.50;2227.20;;;;;;4793691;29;20034;-78
2024/01/23 10:07:42;;;;;;;164.07;107.78;;;102.40;2227.20;;;;;;4777580;29;20039;-78
2024/01/23 10:10:15;;;;;;;159.05;100.82;;;77.60;2227.20;;;;;;4787555;30;20027;-78
2024/01/23 10:12:44;;;;;;;;;;;102.60;2227.20;;;;;;4773471;29;20043;-79
2024/01/23 10:15:12;;;;;;;166.10;106.97;;;103.00;2227.20;;;;;;4780516;30;19957;-78
2024/01/23 10:17:38;;;;;;;134.27;89.13;;;128.00;2252.80;;;;;;4783357;29;20032;-77
2024/01/23 10:20:06;;;;;;;139.82;92.53;;;102.90;2227.20;;;;;;4799021;29;20035;-78
2024/01/23 10:22:33;;;;;;;174.63;120.70;;;102.60;2227.20;;;;;;4769709;29;20062;-78
2024/01/23 10:24:59;;;;;;;171.23;118.80;;;103.10;2227.20;;;;;;4773126;30;20052;-78
2024/01/23 10:27:30;;;;;;;227.10;145.85;;;128.20;2252.80;;;;;;4803708;29;20054;-78
2024/01/23 10:29:55;;;;;;;341.90;207.52;;;128.30;2252.80;;;;;;4806734;29;20029;-78
2024/01/23 10:32:23;;;;;;;151.70;100.00;;;128.10;2252.80;;;;;;4786814;30;20048;-78
2024/01/23 10:34:53;;;;;;;187.25;121.85;;;103.20;2227.20;;;;;;4779444;30;20498;-78
2024/01/23 10:37:21;;;;;;;176.23;121.07;;;128.10;2252.80;;;;;;4783755;30;20031;-78
2024/01/23 10:39:49;;;;;;;203.32;136.25;;;128.50;2252.80;;;;;;4777805;30;20118;-78
2024/01/23 10:42:16;;;;;;;194.35;133.43;;;128.30;2252.80;;;;;;4772526;30;20028;-78
2024/01/23 10:44:44;;;;;;;221.02;146.60;;;153.70;2252.80;;;;;;4787633;29;20105;-78
2024/01/23 10:47:10;;;;;;;241.60;167.70;;;153.60;2252.80;;;;;;4802500;29;20436;-78
2024/01/23 10:49:36;;;;;;;259.15;174.23;;;153.80;2252.80;;;;;;4778678;30;20039;-77
2024/01/23 10:52:04;;;;;;;233.02;155.38;;;154.30;2252.80;;;;;;4771020;29;20513;-79
2024/01/23 10:54:32;;;;;;;275.23;176.07;;;179.20;2252.80;;;;;;4791516;29;20068;-78
2024/01/23 10:56:59;;;;;;;274.35;176.25;;;179.30;2252.80;;;;;;4789967;29;20031;-78
2024/01/23 10:59:30;;;;;;;330.35;214.05;;;179.50;2252.80;;;;;;4788912;30;20063;-78
2024/01/23 11:02:14;;;;;;;348.08;227.30;;;179.50;2252.80;;;;;;4790122;29;20042;-78
2024/01/23 11:04:40;;;;;;;227.50;151.70;;;179.40;2252.80;;;;;;4794870;29;20427;-78
2024/01/23 11:07:15;;;;;;;155.13;109.82;;;179.70;2252.80;;;;;;4798287;29;20148;-78
2024/01/23 11:10:17;;;;;;;178.13;121.80;;;180.00;2252.80;;;;;;4783039;30;20031;-79
2024/01/23 11:13:03;;;;;;;136.05;93.30;;;204.80;2252.80;;;;;;4771742;29;20135;-78
2024/01/23 11:15:29;;;;;;;132.70;90.47;;;204.80;2252.80;;;;;;4786284;30;20069;-78
2024/01/23 11:18:21;;;;;;;129.40;94.43;;;204.90;2252.80;;;;;;4789031;29;20493;-78
2024/01/23 11:21:11;;;;;;;268.50;196.45;;;205.00;2252.80;;;;;;4788837;29;20039;-77
2024/01/23 11:23:42;;;;;;;316.48;224.52;;;204.80;2252.80;;;;;;4807189;29;20026;-78
2024/01/23 11:26:20;;;;;;;351.60;242.32;;;205.00;2252.80;;;;;;4802719;29;20070;-78
2024/01/23 11:28:53;;;;;;;297.42;221.40;;;205.00;2252.80;;;;;;4782338;29;20456;-78
2024/01/23 11:31:21;;;;;;;351.50;248.23;;;180.10;2252.80;;;;;;4806425;29;20033;-79
2024/01/23 11:33:48;;;;;;;508.38;352.40;;;180.00;2252.80;;;;;;4806347;29;20096;-78
2024/01/23 11:36:21;;;;;;;397.55;265.38;;;180.10;2252.80;;;;;;4798962;29;20114;-78
2024/01/23 11:38:58;;;;;;;329.45;223.25;;;205.00;2252.80;;;;;;4792310;29;20028;-78
2024/01/23 11:41:28;;;;;;;313.08;214.38;;;205.00;2252.80;;;;;;4799508;29;20493;-78
2024/01/23 11:44:04;;;;;;;238.85;175.23;;;205.10;2252.80;;;;;;4790703;30;20475;-78
2024/01/23 11:46:36;;;;;;;169.63;130.45;;;205.20;2252.80;;;;;;4802117;29;20079;-78
2024/01/23 11:49:02;;;;;;;147.73;112.80;;;205.10;2252.80;;;;;;4766506;30;20027;-78
2024/01/23 11:51:29;;;;;;;153.52;116.30;;;205.10;2252.80;;;;;;4790218;30;20050;-78
2024/01/23 11:53:59;;;;;;;106.50;77.03;;;205.30;2252.80;;;;;;4767716;30;20044;-78
2024/01/23 11:56:28;;;;;;;113.80;89.32;;;205.40;2252.80;;;;;;4768685;30;20036;-78
2024/01/23 11:58:59;;;;;;;95.45;70.90;;;205.50;2252.80;;;;;;4806084;29;20084;-78
2024/01/23 12:01:29;;;;;;;105.57;83.40;;;205.50;2252.80;;;;;;4787851;30;20031;-79
2024/01/23 12:03:55;;;;;;;136.43;108.28;;;205.60;2252.80;;;;;;4773950;29;20024;-79
2024/01/23 12:06:22;;;;;;;97.18;71.72;;;205.20;2252.80;;;;;;4788224;30;20043;-77
2024/01/23 12:08:51;;;;;;;86.93;62.78;;;205.20;2252.80;;;;;;4790199;29;20036;-78
2024/01/23 12:11:18;;;;;;;211.93;136.10;;;205.20;2252.80;;;;;;4794365;30;20501;-78